createdAt,value
2022-08-05T00:01:55.134Z,25.10
2022-08-05T00:04:36.065Z,25.10
2022-08-05T00:07:26.873Z,25.00
2022-08-05T00:09:53.370Z,25.00
2022-08-05T00:12:24.696Z,25.00
2022-08-05T00:14:53.235Z,25.00
2022-08-05T00:17:22.164Z,25.00
2022-08-05T00:20:02.391Z,25.00
2022-08-05T00:22:32.073Z,25.00
2022-08-05T00:25:00.648Z,25.00
2022-08-05T00:27:36.171Z,25.00
2022-08-05T00:30:11.509Z,24.90
2022-08-05T00:32:41.314Z,24.90
2022-08-05T00:35:10.539Z,24.80
2022-08-05T00:37:53.157Z,24.80
2022-08-05T00:40:27.329Z,24.60
2022-08-05T00:42:59.929Z,24.60
2022-08-05T00:45:43.186Z,24.50
2022-08-05T00:48:13.642Z,24.50
2022-08-05T00:50:44.373Z,24.40
2022-08-05T00:54:00.792Z,24.40
2022-08-05T00:56:05.626Z,24.40
2022-08-05T00:58:38.366Z,24.30
2022-08-05T01:01:09.118Z,24.30
2022-08-05T01:03:38.874Z,24.30
2022-08-05T01:06:14.264Z,24.30
2022-08-05T01:08:47.460Z,24.20
2022-08-05T01:11:21.865Z,24.10
2022-08-05T01:14:11.109Z,24.10
2022-08-05T01:16:50.616Z,24.10
2022-08-05T01:19:56.902Z,24.10
2022-08-05T01:22:41.939Z,24.00
2022-08-05T01:25:40.501Z,24.00
2022-08-05T01:28:33.133Z,24.00
2022-08-05T01:31:05.552Z,24.00
2022-08-05T01:33:43.090Z,24.10
2022-08-05T01:36:21.068Z,24.10
2022-08-05T01:39:00.892Z,24.10
2022-08-05T01:41:33.815Z,24.10
2022-08-05T01:44:10.011Z,24.10
2022-08-05T01:46:46.498Z,24.10
2022-08-05T01:49:22.841Z,24.10
2022-08-05T01:51:56.331Z,24.00
2022-08-05T01:54:33.309Z,23.90
2022-08-05T01:58:09.488Z,23.80
2022-08-05T01:59:57.246Z,23.80
2022-08-05T02:02:30.728Z,23.80
2022-08-05T02:05:04.939Z,23.80
2022-08-05T02:07:43.124Z,23.80
2022-08-05T02:10:28.830Z,23.80
2022-08-05T02:13:02.896Z,23.90
2022-08-05T02:15:38.085Z,23.90
2022-08-05T02:18:31.228Z,23.90
2022-08-05T02:21:14.946Z,23.90
2022-08-05T02:23:46.325Z,23.80
2022-08-05T02:26:19.259Z,23.80
2022-08-05T02:28:51.284Z,23.70
2022-08-05T02:31:28.479Z,23.70
2022-08-05T02:34:06.026Z,23.70
2022-08-05T02:36:40.822Z,23.70
2022-08-05T02:39:10.402Z,23.60
2022-08-05T02:41:57.583Z,23.60
2022-08-05T02:44:31.285Z,23.60
2022-08-05T02:47:01.908Z,23.60
2022-08-05T02:49:36.411Z,23.50
2022-08-05T02:52:11.598Z,23.40
2022-08-05T02:54:51.196Z,23.40
2022-08-05T02:58:11.378Z,23.30
2022-08-05T03:00:13.966Z,23.30
2022-08-05T03:02:46.338Z,23.30
2022-08-05T03:05:16.269Z,23.30
2022-08-05T03:08:06.749Z,23.30
2022-08-05T03:10:35.633Z,23.30
2022-08-05T03:13:12.219Z,23.30
2022-08-05T03:15:47.017Z,23.40
2022-08-05T03:18:17.332Z,23.40
2022-08-05T03:20:48.773Z,23.50
2022-08-05T03:23:17.903Z,23.40
2022-08-05T03:26:29.948Z,23.40
2022-08-05T03:28:39.566Z,23.40
2022-08-05T03:31:18.304Z,23.40
2022-08-05T03:34:02.906Z,23.30
2022-08-05T03:36:32.627Z,23.40
2022-08-05T03:39:19.959Z,23.40
2022-08-05T03:41:56.151Z,23.40
2022-08-05T03:44:25.492Z,23.40
2022-08-05T03:46:59.881Z,23.40
2022-08-05T03:49:30.870Z,23.30
2022-08-05T03:52:50.622Z,23.30
2022-08-05T03:55:06.979Z,23.30
2022-08-05T03:57:47.610Z,23.20
2022-08-05T04:00:17.673Z,23.20
2022-08-05T04:02:58.697Z,23.20
2022-08-05T04:05:35.110Z,23.10
2022-08-05T04:08:05.828Z,23.10
2022-08-05T04:10:45.119Z,23.10
2022-08-05T04:13:13.858Z,23.10
2022-08-05T04:15:52.721Z,23.10
2022-08-05T04:18:34.264Z,23.10
2022-08-05T04:21:05.308Z,23.10
2022-08-05T04:24:05.569Z,23.00
2022-08-05T04:26:24.819Z,23.00
2022-08-05T04:28:53.312Z,23.10
2022-08-05T04:31:22.353Z,23.10
2022-08-05T04:34:18.783Z,23.20
2022-08-05T04:36:50.039Z,23.20
2022-08-05T04:39:19.334Z,23.20
2022-08-05T04:41:51.176Z,23.30
2022-08-05T04:44:21.326Z,23.30
2022-08-05T04:46:58.629Z,23.30
2022-08-05T04:49:39.004Z,23.40
2022-08-05T04:52:18.719Z,23.50
2022-08-05T04:54:47.369Z,23.50
2022-08-05T04:57:18.063Z,23.60
2022-08-05T04:59:48.100Z,23.80
2022-08-05T05:02:36.261Z,23.90
2022-08-05T05:05:16.877Z,24.00
2022-08-05T05:08:01.460Z,24.20
2022-08-05T05:10:33.782Z,24.30
2022-08-05T05:13:04.237Z,24.50
2022-08-05T05:15:56.914Z,24.60
2022-08-05T05:18:33.453Z,24.70
2022-08-05T05:21:05.486Z,24.80
2022-08-05T05:24:02.111Z,24.90
2022-08-05T05:26:28.541Z,25.10
2022-08-05T05:29:02.647Z,25.30
2022-08-05T05:31:46.366Z,25.50
2022-08-05T05:34:15.391Z,25.60
2022-08-05T05:36:44.381Z,25.80
2022-08-05T05:39:19.023Z,26.00
2022-08-05T05:41:54.133Z,26.20
2022-08-05T05:44:36.709Z,26.50
2022-08-05T05:47:23.589Z,26.70
2022-08-05T05:50:04.118Z,26.90
2022-08-05T05:52:34.526Z,27.10
2022-08-05T05:55:13.718Z,27.30
2022-08-05T05:57:52.539Z,27.50
2022-08-05T06:00:27.808Z,27.70
2022-08-05T06:03:03.403Z,27.80
2022-08-05T06:05:54.089Z,27.80
2022-08-05T06:08:32.762Z,28.10
2022-08-05T06:11:04.028Z,28.10
2022-08-05T06:13:40.768Z,28.30
2022-08-05T06:16:28.839Z,28.50
2022-08-05T06:19:05.377Z,28.70
2022-08-05T06:21:37.442Z,29.00
2022-08-05T06:24:12.168Z,29.30
2022-08-05T06:26:52.048Z,29.50
2022-08-05T06:29:42.931Z,29.70
2022-08-05T06:32:24.822Z,30.10
2022-08-05T06:34:56.630Z,30.40
2022-08-05T06:37:56.182Z,30.60
2022-08-05T06:40:18.478Z,30.70
2022-08-05T06:42:52.634Z,31.00
2022-08-05T06:45:44.673Z,31.20
2022-08-05T06:48:46.989Z,31.20
2022-08-05T06:51:00.764Z,31.40
2022-08-05T06:53:29.790Z,31.50
2022-08-05T06:55:59.425Z,31.60
2022-08-05T06:58:36.183Z,31.70
2022-08-05T07:01:07.200Z,31.90
2022-08-05T07:03:36.388Z,32.00
2022-08-05T07:06:14.184Z,32.10
2022-08-05T07:08:47.617Z,32.30
2022-08-05T07:11:21.911Z,32.60
2022-08-05T07:14:15.562Z,32.80
2022-08-05T07:17:59.723Z,32.80
2022-08-05T07:20:30.978Z,32.90
2022-08-05T07:22:30.455Z,33.20
2022-08-05T07:25:21.759Z,33.20
2022-08-05T07:27:58.526Z,33.40
2022-08-05T07:30:34.524Z,33.60
2022-08-05T07:33:09.794Z,33.60
2022-08-05T07:36:05.299Z,33.70
2022-08-05T07:38:33.510Z,33.80
2022-08-05T07:42:07.128Z,34.00
2022-08-05T07:43:57.324Z,34.00
2022-08-05T07:46:29.465Z,34.10
2022-08-05T07:49:05.433Z,34.30
2022-08-05T07:51:48.921Z,34.30
2022-08-05T07:54:30.821Z,34.10
2022-08-05T07:57:17.982Z,34.20
2022-08-05T07:59:52.136Z,34.40
2022-08-05T08:02:30.861Z,34.50
2022-08-05T08:05:17.538Z,34.50
2022-08-05T08:08:00.215Z,34.50
2022-08-05T08:10:30.111Z,34.60
2022-08-05T08:12:59.183Z,34.70
2022-08-05T08:16:34.606Z,34.70
2022-08-05T08:18:20.961Z,34.90
2022-08-05T08:21:02.747Z,35.10
2022-08-05T08:24:01.969Z,35.30
2022-08-05T08:26:29.273Z,35.40
2022-08-05T08:29:21.586Z,35.30
2022-08-05T08:31:48.691Z,35.10
2022-08-05T08:34:18.982Z,35.00
2022-08-05T08:37:03.405Z,35.20
2022-08-05T08:39:37.549Z,35.20
2022-08-05T08:42:10.806Z,35.10
2022-08-05T08:45:25.207Z,35.20
2022-08-05T08:48:07.010Z,35.50
2022-08-05T08:51:03.815Z,35.70
2022-08-05T08:53:37.237Z,35.80
2022-08-05T08:56:06.713Z,35.70
2022-08-05T08:58:43.098Z,35.50
2022-08-05T09:01:16.455Z,35.30
2022-08-05T09:03:48.178Z,35.20
2022-08-05T09:06:24.200Z,35.40
2022-08-05T09:08:57.724Z,35.70
2022-08-05T09:11:51.637Z,35.80
2022-08-05T09:14:58.095Z,36.00
2022-08-05T09:17:40.289Z,36.10
2022-08-05T09:20:02.598Z,36.20
2022-08-05T09:23:07.693Z,36.00
2022-08-05T09:26:01.167Z,36.10
2022-08-05T09:28:32.524Z,36.10
2022-08-05T09:31:22.068Z,36.20
2022-08-05T09:33:56.166Z,36.30
2022-08-05T09:36:27.736Z,36.10
2022-08-05T09:39:16.501Z,36.10
2022-08-05T09:41:58.466Z,36.20
2022-08-05T09:44:41.965Z,36.30
2022-08-05T09:47:15.399Z,36.40
2022-08-05T09:50:01.681Z,36.60
2022-08-05T09:52:32.931Z,36.70
2022-08-05T09:55:55.378Z,36.50
2022-08-05T09:57:58.734Z,36.60
2022-08-05T10:00:30.479Z,36.40
2022-08-05T10:02:59.550Z,36.20
2022-08-05T10:05:32.881Z,36.10
2022-08-05T10:08:35.352Z,36.00
2022-08-05T10:10:59.551Z,35.80
2022-08-05T10:13:45.767Z,36.10
2022-08-05T10:16:37.915Z,36.20
2022-08-05T10:19:23.553Z,36.10
2022-08-05T10:22:00.368Z,36.00
2022-08-05T10:24:30.001Z,35.90
2022-08-05T10:27:02.853Z,36.00
2022-08-05T10:30:06.419Z,36.10
2022-08-05T10:32:52.206Z,36.10
2022-08-05T10:35:15.546Z,36.10
2022-08-05T10:37:45.376Z,36.20
2022-08-05T10:40:28.159Z,35.90
2022-08-05T10:43:05.961Z,35.70
2022-08-05T10:45:40.152Z,35.60
2022-08-05T10:48:39.538Z,35.80
2022-08-05T10:51:29.313Z,36.00
2022-08-05T10:54:17.062Z,36.10
2022-08-05T10:56:53.478Z,36.00
2022-08-05T11:00:04.122Z,35.90
2022-08-05T11:02:34.953Z,35.90
2022-08-05T11:05:10.215Z,35.90
2022-08-05T11:08:02.817Z,35.90
2022-08-05T11:10:34.925Z,35.80
2022-08-05T11:13:07.502Z,35.70
2022-08-05T11:16:01.332Z,35.60
2022-08-05T11:18:34.097Z,35.50
2022-08-05T11:21:25.976Z,35.50
2022-08-05T11:24:04.208Z,35.40
2022-08-05T11:26:43.374Z,35.40
2022-08-05T11:29:36.117Z,35.50
2022-08-05T11:32:29.083Z,35.40
2022-08-05T11:34:58.931Z,35.30
2022-08-05T11:38:36.488Z,35.40
2022-08-05T11:41:35.289Z,35.50
2022-08-05T11:44:05.994Z,35.70
2022-08-05T11:46:58.594Z,35.70
2022-08-05T11:49:29.404Z,35.80
2022-08-05T11:52:08.681Z,35.70
2022-08-05T11:54:41.693Z,35.70
2022-08-05T11:57:25.635Z,35.60
2022-08-05T11:59:55.030Z,35.50
2022-08-05T12:02:30.258Z,35.60
2022-08-05T12:05:07.439Z,35.70
2022-08-05T12:08:03.226Z,35.90
2022-08-05T12:10:45.836Z,35.90
2022-08-05T12:13:28.345Z,36.00
2022-08-05T12:16:14.590Z,36.10
2022-08-05T12:18:49.489Z,36.10
2022-08-05T12:21:26.907Z,36.10
2022-08-05T12:24:04.397Z,36.30
2022-08-05T12:26:35.523Z,36.50
2022-08-05T12:29:09.612Z,36.60
2022-08-05T12:31:49.931Z,36.70
2022-08-05T12:34:28.716Z,36.80
2022-08-05T12:37:03.555Z,37.00
2022-08-05T12:39:38.461Z,36.90
2022-08-05T12:42:14.289Z,36.90
2022-08-05T12:44:45.848Z,37.10
2022-08-05T12:47:30.399Z,37.00
2022-08-05T12:50:04.097Z,36.70
2022-08-05T12:52:42.175Z,36.70
2022-08-05T12:55:22.676Z,36.60
2022-08-05T12:58:38.380Z,36.60
2022-08-05T13:02:02.757Z,36.70
2022-08-05T13:03:41.447Z,36.80
2022-08-05T13:06:15.860Z,36.70
2022-08-05T13:08:51.687Z,36.80
2022-08-05T13:12:01.611Z,36.80
2022-08-05T13:14:19.522Z,36.70
2022-08-05T13:16:50.139Z,36.80
2022-08-05T13:19:22.288Z,36.90
2022-08-05T13:21:56.748Z,37.00
2022-08-05T13:24:36.363Z,37.00
2022-08-05T13:27:38.391Z,36.90
2022-08-05T13:30:34.571Z,36.90
2022-08-05T13:33:01.409Z,37.00
2022-08-05T13:35:43.130Z,36.90
2022-08-05T13:38:20.395Z,36.90
2022-08-05T13:41:01.554Z,36.90
2022-08-05T13:43:45.098Z,36.90
2022-08-05T13:46:35.709Z,36.90
2022-08-05T13:49:10.190Z,37.00
2022-08-05T13:51:46.067Z,37.10
2022-08-05T13:54:20.822Z,37.10
2022-08-05T13:56:54.764Z,37.20
2022-08-05T13:59:26.960Z,37.10
2022-08-05T14:01:58.948Z,37.10
2022-08-05T14:04:51.489Z,37.20
2022-08-05T14:07:26.398Z,37.40
2022-08-05T14:10:13.451Z,37.40
2022-08-05T14:12:48.930Z,37.40
2022-08-05T14:16:09.087Z,37.40
2022-08-05T14:18:14.821Z,37.40
2022-08-05T14:20:47.219Z,37.40
2022-08-05T14:23:24.870Z,37.40
2022-08-05T14:25:59.101Z,37.30
2022-08-05T14:28:30.666Z,37.20
2022-08-05T14:31:01.032Z,37.20
2022-08-05T14:33:56.301Z,37.10
2022-08-05T14:36:20.662Z,36.90
2022-08-05T14:38:51.096Z,36.90
2022-08-05T14:41:21.167Z,37.00
2022-08-05T14:44:02.597Z,37.10
2022-08-05T14:46:38.026Z,37.30
2022-08-05T14:49:08.429Z,37.30
2022-08-05T14:51:38.140Z,37.30
2022-08-05T14:54:28.527Z,37.30
2022-08-05T14:56:56.320Z,37.30
2022-08-05T14:59:29.578Z,37.10
2022-08-05T15:02:16.124Z,37.00
2022-08-05T15:04:47.803Z,37.00
2022-08-05T15:08:06.489Z,37.10
2022-08-05T15:10:09.508Z,37.10
2022-08-05T15:13:00.400Z,37.20
2022-08-05T15:15:55.454Z,37.20
2022-08-05T15:18:19.725Z,37.20
2022-08-05T15:20:48.415Z,37.30
2022-08-05T15:23:19.442Z,37.20
2022-08-05T15:25:52.362Z,37.00
2022-08-05T15:28:27.703Z,37.10
2022-08-05T15:30:58.444Z,37.20
2022-08-05T15:34:05.686Z,37.10
2022-08-05T15:36:17.378Z,37.10
2022-08-05T15:40:41.752Z,37.20
2022-08-05T15:41:56.054Z,37.30
2022-08-05T15:44:27.950Z,37.30
2022-08-05T15:47:04.335Z,37.20
2022-08-05T15:49:48.126Z,37.40
2022-08-05T15:52:51.906Z,37.30
2022-08-05T15:55:16.558Z,37.20
2022-08-05T15:57:46.008Z,37.20
2022-08-05T16:00:26.244Z,37.10
2022-08-05T16:03:10.010Z,37.10
2022-08-05T16:05:39.241Z,36.90
2022-08-05T16:08:10.895Z,36.90
2022-08-05T16:10:44.861Z,36.90
2022-08-05T16:13:23.502Z,36.90
2022-08-05T16:15:53.029Z,36.80
2022-08-05T16:18:22.934Z,36.80
2022-08-05T16:20:57.570Z,36.80
2022-08-05T16:23:27.465Z,36.90
2022-08-05T16:26:12.209Z,36.80
2022-08-05T16:28:42.305Z,36.80
2022-08-05T16:31:11.569Z,36.70
2022-08-05T16:33:42.084Z,36.70
2022-08-05T16:36:11.480Z,36.80
2022-08-05T16:38:40.105Z,36.70
2022-08-05T16:42:11.940Z,36.60
2022-08-05T16:43:58.022Z,36.50
2022-08-05T16:46:26.872Z,36.60
2022-08-05T16:48:56.854Z,36.60
2022-08-05T16:51:31.034Z,36.50
2022-08-05T16:54:18.630Z,36.60
2022-08-05T16:56:51.964Z,36.50
2022-08-05T16:59:21.063Z,36.30
2022-08-05T17:01:53.709Z,36.20
2022-08-05T17:04:27.658Z,36.10
2022-08-05T17:07:00.870Z,36.00
2022-08-05T17:09:38.957Z,35.90
2022-08-05T17:12:32.324Z,35.90
2022-08-05T17:15:09.247Z,35.80
2022-08-05T17:17:41.982Z,35.70
2022-08-05T17:20:14.914Z,35.60
2022-08-05T17:22:45.038Z,35.50
2022-08-05T17:25:33.959Z,35.40
2022-08-05T17:28:02.487Z,35.30
2022-08-05T17:30:31.257Z,35.30
2022-08-05T17:32:59.765Z,35.20
2022-08-05T17:35:32.561Z,35.20
2022-08-05T17:38:18.505Z,34.90
2022-08-05T17:40:47.723Z,34.90
2022-08-05T17:43:18.202Z,34.90
2022-08-05T17:46:07.028Z,34.80
2022-08-05T17:48:38.868Z,34.70
2022-08-05T17:51:09.682Z,34.60
2022-08-05T17:53:38.269Z,34.50
2022-08-05T17:56:11.770Z,34.30
2022-08-05T17:58:43.389Z,34.30
2022-08-05T18:01:13.131Z,34.10
2022-08-05T18:03:58.711Z,34.00
2022-08-05T18:06:33.838Z,33.90
2022-08-05T18:09:03.474Z,33.80
2022-08-05T18:11:33.817Z,33.70
2022-08-05T18:14:06.558Z,33.60
2022-08-05T18:16:43.733Z,33.50
2022-08-05T18:19:23.266Z,33.50
2022-08-05T18:22:09.323Z,33.40
2022-08-05T18:24:40.196Z,33.30
2022-08-05T18:27:18.316Z,33.10
2022-08-05T18:29:53.520Z,33.10
2022-08-05T18:32:28.471Z,33.00
2022-08-05T18:34:58.832Z,32.90
2022-08-05T18:37:34.853Z,32.90
2022-08-05T18:40:34.546Z,32.80
2022-08-05T18:43:00.997Z,32.70
2022-08-05T18:45:41.035Z,32.70
2022-08-05T18:48:11.921Z,32.60
2022-08-05T18:52:03.389Z,32.40
2022-08-05T18:53:50.461Z,32.40
2022-08-05T18:56:21.644Z,32.30
2022-08-05T18:58:54.912Z,32.20
2022-08-05T19:01:33.364Z,32.10
2022-08-05T19:04:23.934Z,32.10
2022-08-05T19:06:53.737Z,32.10
2022-08-05T19:09:24.326Z,32.10
2022-08-05T19:11:59.194Z,32.00
2022-08-05T19:14:59.570Z,32.00
2022-08-05T19:17:21.058Z,32.00
2022-08-05T19:19:50.606Z,31.90
2022-08-05T19:22:27.548Z,31.80
2022-08-05T19:25:00.769Z,31.80
2022-08-05T19:27:31.469Z,31.80
2022-08-05T19:30:02.795Z,31.70
2022-08-05T19:32:31.737Z,31.60
2022-08-05T19:35:05.824Z,31.60
2022-08-05T19:38:06.567Z,31.50
2022-08-05T19:40:25.624Z,31.50
2022-08-05T19:43:04.857Z,31.40
2022-08-05T19:45:36.980Z,31.40
2022-08-05T19:48:14.406Z,31.30
2022-08-05T19:50:43.626Z,31.30
2022-08-05T19:53:13.380Z,31.20
2022-08-05T19:56:13.828Z,31.20
2022-08-05T19:58:32.882Z,31.10
2022-08-05T20:01:28.171Z,31.00
2022-08-05T20:03:57.441Z,31.00
2022-08-05T20:06:28.841Z,31.00
2022-08-05T20:09:00.899Z,31.00
2022-08-05T20:11:48.175Z,30.90
2022-08-05T20:14:23.515Z,30.90
2022-08-05T20:16:55.959Z,30.90
2022-08-05T20:19:25.259Z,30.90
2022-08-05T20:22:04.903Z,30.90
2022-08-05T20:24:35.309Z,30.90
2022-08-05T20:27:11.284Z,30.90
2022-08-05T20:29:40.326Z,30.90
2022-08-05T20:32:10.355Z,30.90
2022-08-05T20:34:41.258Z,30.90
2022-08-05T20:37:17.838Z,30.90
2022-08-05T20:39:52.900Z,30.90
2022-08-05T20:42:28.399Z,30.80
2022-08-05T20:44:57.057Z,30.80
2022-08-05T20:47:32.221Z,30.70
2022-08-05T20:50:02.300Z,30.70
2022-08-05T20:52:31.598Z,30.60
2022-08-05T20:55:54.714Z,30.60
2022-08-05T20:57:50.797Z,30.60
2022-08-05T21:00:52.089Z,30.50
2022-08-05T21:03:08.889Z,30.40
2022-08-05T21:05:53.752Z,30.30
2022-08-05T21:08:26.548Z,30.30
2022-08-05T21:11:09.957Z,30.20
2022-08-05T21:13:47.564Z,30.10
2022-08-05T21:16:30.456Z,30.00
2022-08-05T21:19:03.454Z,29.90
2022-08-05T21:21:44.493Z,29.90
2022-08-05T21:24:20.039Z,29.70
2022-08-05T21:26:58.055Z,29.70
2022-08-05T21:29:31.828Z,29.60
2022-08-05T21:32:02.186Z,29.50
2022-08-05T21:34:31.696Z,29.40
2022-08-05T21:37:01.876Z,29.30
2022-08-05T21:39:34.644Z,29.20
2022-08-05T21:42:30.515Z,29.10
2022-08-05T21:44:59.249Z,28.90
2022-08-05T21:47:54.967Z,28.90
2022-08-05T21:50:19.227Z,28.80
2022-08-05T21:52:50.877Z,28.80
2022-08-05T21:55:42.981Z,28.70
2022-08-05T21:58:10.223Z,28.70
2022-08-05T22:00:41.894Z,28.60
2022-08-05T22:03:48.230Z,28.50
2022-08-05T22:06:08.401Z,28.40
2022-08-05T22:08:37.039Z,28.40
2022-08-05T22:11:15.584Z,28.20
2022-08-05T22:14:31.204Z,28.10
2022-08-05T22:16:51.660Z,28.00
2022-08-05T22:20:03.523Z,27.90
2022-08-05T22:22:10.749Z,27.80
2022-08-05T22:24:58.267Z,27.70
2022-08-05T22:28:08.744Z,27.60
2022-08-05T22:30:35.855Z,27.50
2022-08-05T22:33:15.389Z,27.50
2022-08-05T22:35:48.845Z,27.50
2022-08-05T22:38:19.017Z,27.40
2022-08-05T22:40:55.047Z,27.40
2022-08-05T22:43:37.294Z,27.30
2022-08-05T22:46:13.305Z,27.30
2022-08-05T22:48:46.086Z,27.30
2022-08-05T22:51:15.858Z,27.40
2022-08-05T22:53:54.971Z,27.50
2022-08-05T22:56:29.801Z,27.50
2022-08-05T22:59:03.219Z,27.60
2022-08-05T23:02:05.535Z,27.60
2022-08-05T23:04:37.969Z,27.60
2022-08-05T23:07:07.182Z,27.50
2022-08-05T23:09:57.826Z,27.40
2022-08-05T23:12:24.746Z,27.20
2022-08-05T23:14:53.580Z,27.10
2022-08-05T23:17:34.437Z,27.10
2022-08-05T23:20:17.520Z,27.10
2022-08-05T23:22:48.266Z,27.10
2022-08-05T23:25:53.523Z,27.10
2022-08-05T23:28:07.722Z,27.10
2022-08-05T23:30:40.113Z,27.10
2022-08-05T23:33:16.289Z,27.00
2022-08-05T23:35:52.716Z,27.00
2022-08-05T23:38:26.123Z,27.00
2022-08-05T23:40:55.502Z,27.00
2022-08-05T23:43:37.305Z,26.90
2022-08-05T23:46:21.483Z,26.90
2022-08-05T23:49:00.236Z,27.00
2022-08-05T23:51:52.433Z,27.00
2022-08-05T23:54:25.859Z,27.00
2022-08-05T23:57:03.236Z,27.00
